Map

Track Data

SID SEASON NUMBER BASIN SUBBASIN NAME ISO_TIME NATURE LAT LON WMO_WIND WMO_PRES WMO_AGENCY TRACK_TYPE DIST2LAND LANDFALL IFLAG USA_AGENCY USA_ATCF_ID USA_LAT USA_LON USA_RECORD USA_STATUS USA_WIND USA_PRES USA_SSHS USA_R34_NE USA_R34_SE USA_R34_SW USA_R34_NW USA_R50_NE USA_R50_SE USA_R50_SW USA_R50_NW USA_R64_NE USA_R64_SE USA_R64_SW USA_R64_NW USA_POCI USA_ROCI USA_RMW USA_EYE TOKYO_LAT TOKYO_LON TOKYO_GRADE TOKYO_WIND TOKYO_PRES TOKYO_R50_DIR TOKYO_R50_LONG TOKYO_R50_SHORT TOKYO_R30_DIR TOKYO_R30_LONG TOKYO_R30_SHORT TOKYO_LAND CMA_LAT CMA_LON CMA_CAT CMA_WIND CMA_PRES HKO_LAT HKO_LON HKO_CAT HKO_WIND HKO_PRES NEWDELHI_LAT NEWDELHI_LON NEWDELHI_GRADE NEWDELHI_WIND NEWDELHI_PRES NEWDELHI_CI NEWDELHI_DP NEWDELHI_POCI REUNION_LAT REUNION_LON REUNION_TYPE REUNION_WIND REUNION_PRES REUNION_TNUM REUNION_CI REUNION_RMW REUNION_R34_NE REUNION_R34_SE REUNION_R34_SW REUNION_R34_NW REUNION_R50_NE REUNION_R50_SE REUNION_R50_SW REUNION_R50_NW REUNION_R64_NE REUNION_R64_SE REUNION_R64_SW REUNION_R64_NW BOM_LAT BOM_LON BOM_TYPE BOM_WIND BOM_PRES BOM_TNUM BOM_CI BOM_RMW BOM_R34_NE BOM_R34_SE BOM_R34_SW BOM_R34_NW BOM_R50_NE BOM_R50_SE BOM_R50_SW BOM_R50_NW BOM_R64_NE BOM_R64_SE BOM_R64_SW BOM_R64_NW BOM_ROCI BOM_POCI BOM_EYE BOM_POS_METHOD BOM_PRES_METHOD NADI_LAT NADI_LON NADI_CAT NADI_WIND NADI_PRES WELLINGTON_LAT WELLINGTON_LON WELLINGTON_WIND WELLINGTON_PRES DS824_LAT DS824_LON DS824_STAGE DS824_WIND DS824_PRES TD9636_LAT TD9636_LON TD9636_STAGE TD9636_WIND TD9636_PRES TD9635_LAT TD9635_LON TD9635_WIND TD9635_PRES TD9635_ROCI NEUMANN_LAT NEUMANN_LON NEUMANN_CLASS NEUMANN_WIND NEUMANN_PRES MLC_LAT MLC_LON MLC_CLASS MLC_WIND MLC_PRES USA_GUST BOM_GUST BOM_GUST_PER REUNION_GUST REUNION_GUST_PER USA_SEAHGT USA_SEARAD_NE USA_SEARAD_SE USA_SEARAD_SW USA_SEARAD_NW STORM_SPEED STORM_DIR
1973153N12266 1973 51 EP MM AVA 1973-06-02 00:00:00 TS 11.5000 -94.1000 30 hurdat_epa main 391 391 O________OO___ hurdat_epa EP011973 11.5000 -94.1000 TD 30 -1 11.5000 -94.1000 TC 30 11.5000 -94.1000 1 30 1 315
1973153N12266 1973 51 EP MM AVA 1973-06-02 03:00:00 TS 11.5487 -94.1445 main 391 383 P________PP___ EP011973 11.5500 -94.1400 TD 30 -1 11.5500 -94.1400 TC 30 11.5437 -94.1625 1 30 1 313
1973153N12266 1973 51 EP MM AVA 1973-06-02 06:00:00 TS 11.5980 -94.2060 30 hurdat_epa main 390 390 O________OP___ hurdat_epa EP011973 11.6000 -94.2000 TD 30 -1 11.6000 -94.2000 TC 30 11.5900 -94.2300 1 30 2 304
1973153N12266 1973 51 EP MM AVA 1973-06-02 09:00:00 TS 11.6482 -94.2955 main 396 387 P________PP___ EP011973 11.6500 -94.2925 TD 30 -1 11.6500 -94.2925 TC 30 11.6412 -94.3075 1 30 2 298
1973153N12266 1973 51 EP MM AVA 1973-06-02 12:00:00 TS 11.7000 -94.4000 30 hurdat_epa main 393 393 O________OO___ hurdat_epa EP011973 11.7000 -94.4000 TD 30 -1 11.7000 -94.4000 TC 30 11.7000 -94.4000 1 30 2 297
1973153N12266 1973 51 EP MM AVA 1973-06-02 15:00:00 TS 11.7476 -94.4961 main 400 391 P________PP___ EP011973 11.7425 -94.4925 TD 32 -1 11.7425 -94.4925 TC 32 11.7678 -94.5106 1 35 2 298
1973153N12266 1973 51 EP MM AVA 1973-06-02 18:00:00 TS 11.8085 -94.6070 35 hurdat_epa main 398 397 O________OP___ hurdat_epa EP011973 11.8000 -94.6000 TS 35 0 11.8000 -94.6000 TC 35 11.8425 -94.6350 1 40 3 302
1973153N12266 1973 51 EP MM AVA 1973-06-02 21:00:00 TS 11.9042 -94.7534 main 405 397 P________PP___ EP011973 11.9000 -94.7500 TS 42 0 11.9000 -94.7500 TC 42 11.9209 -94.7669 1 45 3 304
1973153N12266 1973 51 EP MM AVA 1973-06-03 00:00:00 TS 12.0000 -94.9000 50 998 hurdat_epa main 404 404 O________OO___ hurdat_epa EP011973 12.0000 -94.9000 TS 50 998 0 12.0000 -94.9000 TC 50 998 12.0000 -94.9000 2 50 3 302
1973153N12266 1973 51 EP MM AVA 1973-06-03 03:00:00 TS 12.0558 -94.9985 main 404 404 P________PP___ EP011973 12.0500 -95.0000 TS 55 0 12.0500 -95.0000 TC 55 12.0789 -94.9926 2 52 2 300
1973153N12266 1973 51 EP MM AVA 1973-06-03 06:00:00 TS 12.1114 -95.0980 60 hurdat_epa main 412 404 O________OP___ hurdat_epa EP011973 12.1000 -95.1000 TS 60 0 12.1000 -95.1000 TC 60 12.1572 -95.0901 2 55 3 305
1973153N12266 1973 51 EP MM AVA 1973-06-03 09:00:00 TS 12.2064 -95.2255 main 406 390 P________PP___ EP011973 12.2000 -95.2275 TS 60 0 12.2000 -95.2275 TC 60 12.2320 -95.2176 2 57 4 302
1973153N12266 1973 51 EP MM AVA 1973-06-03 12:00:00 TS 12.3000 -95.4000 60 hurdat_epa main 390 374 O________OO___ hurdat_epa EP011973 12.3000 -95.4000 TS 60 0 12.3000 -95.4000 TC 60 12.3000 -95.4000 2 60 4 291
1973153N12266 1973 51 EP MM AVA 1973-06-03 15:00:00 TS 12.3590 -95.6235 main 374 366 P________PP___ EP011973 12.3574 -95.6125 TS 60 0 12.3574 -95.6125 TC 60 12.3654 -95.6674 2 62 5 282
1973153N12266 1973 51 EP MM AVA 1973-06-03 18:00:00 TS 12.4045 -95.9180 60 993 hurdat_epa main 366 348 O________OP___ hurdat_epa EP011973 12.4000 -95.9000 TS 60 993 0 12.4000 -95.9000 TC 60 993 12.4227 -95.9899 2 65 7 279
1973153N12266 1973 51 EP MM AVA 1973-06-03 21:00:00 TS 12.4598 -96.3025 main 348 347 P________PP___ EP011973 12.4576 -96.2925 TS 65 993 1 12.4576 -96.2925 TC 65 993 12.4685 -96.3424 2 67 8 277
1973153N12266 1973 51 EP MM AVA 1973-06-04 00:00:00 TS 12.5000 -96.7000 70 994 hurdat_epa main 347 347 O________OO___ hurdat_epa EP011973 12.5000 -96.7000 HU 70 994 1 12.5000 -96.7000 TC 70 994 12.5000 -96.7000 4 70 7 274
1973153N12266 1973 51 EP MM AVA 1973-06-04 03:00:00 TS 12.5079 -97.0102 main 349 349 P________PP___ EP011973 12.5074 -97.0075 HU 70 1 12.5074 -97.0075 TC 70 12.5102 -97.0211 4 71 6 270
1973153N12266 1973 51 EP MM AVA 1973-06-04 06:00:00 TS 12.5015 -97.3085 70 hurdat_epa main 355 355 O________OP___ hurdat_epa EP011973 12.5000 -97.3000 HU 70 1 12.5000 -97.3000 TC 70 12.5073 -97.3427 4 72 6 269
1973153N12266 1973 51 EP MM AVA 1973-06-04 09:00:00 TS 12.4941 -97.6476 main 363 363 P________PP___ EP011973 12.4925 -97.6425 HU 72 1 12.4925 -97.6425 TC 72 12.5008 -97.6679 4 73 7 270
1973153N12266 1973 51 EP MM AVA 1973-06-04 12:00:00 TS 12.5000 -98.0000 75 hurdat_epa main 378 378 O________OO___ hurdat_epa EP011973 12.5000 -98.0000 HU 75 1 12.5000 -98.0000 TC 75 12.5000 -98.0000 4 75 7 274
1973153N12266 1973 51 EP MM AVA 1973-06-04 15:00:00 TS 12.5443 -98.3461 main 392 386 P________PP___ EP011973 12.5500 -98.3500 HU 75 1 12.5500 -98.3500 TC 75 12.5217 -98.3306 4 75 7 278
1973153N12266 1973 51 EP MM AVA 1973-06-04 18:00:00 TS 12.5899 -98.6940 75 982 hurdat_epa main 392 392 O________OP___ hurdat_epa EP011973 12.6000 -98.7000 HU 75 982 1 12.6000 -98.7000 TC 75 982 12.5497 -98.6699 4 75 7 275
1973153N12266 1973 51 EP MM AVA 1973-06-04 21:00:00 TS 12.6015 -99.0389 main 402 402 P________PP___ EP011973 12.6074 -99.0425 HU 75 1 12.6074 -99.0425 TC 75 12.5779 -99.0243 4 75 7 271
1973153N12266 1973 51 EP MM AVA 1973-06-05 00:00:00 TS 12.6000 -99.4000 75 hurdat_epa main 417 417 O________OO___ hurdat_epa EP011973 12.6000 -99.4000 HU 75 1 12.6000 -99.4000 TC 75 12.6000 -99.4000 4 75 7 270
1973153N12266 1973 51 EP MM AVA 1973-06-05 03:00:00 TS 12.6013 -99.7838 main 433 433 P________PP___ EP011973 12.5999 -99.7850 HU 75 1 12.5999 -99.7850 TC 75 12.6068 -99.7792 4 76 8 270
1973153N12266 1973 51 EP MM AVA 1973-06-05 06:00:00 TS 12.6014 -100.197 75 hurdat_epa main 448 448 O________OP___ hurdat_epa EP011973 12.6000 -100.200 HU 75 1 12.6000 -100.200 TC 75 12.6069 -100.183 4 77 8 270
1973153N12266 1973 51 EP MM AVA 1973-06-05 09:00:00 TS 12.6006 -100.626 main 466 466 P________PP___ EP011973 12.5999 -100.628 HU 75 1 12.5999 -100.628 TC 75 12.6036 -100.620 4 78 9 270
1973153N12266 1973 51 EP MM AVA 1973-06-05 12:00:00 TS 12.6000 -101.100 75 hurdat_epa main 483 483 O________OO___ hurdat_epa EP011973 12.6000 -101.100 HU 75 1 12.6000 -101.100 TC 75 12.6000 -101.100 4 80 10 270
1973153N12266 1973 51 EP MM AVA 1973-06-05 15:00:00 TS 12.6032 -101.626 main 502 502 P________PP___ EP011973 12.5999 -101.628 HU 85 2 12.5999 -101.628 TC 85 12.6161 -101.619 4 85 11 270
1973153N12266 1973 51 EP MM AVA 1973-06-05 18:00:00 TS 12.6059 -102.196 95 946 hurdat_epa main 532 532 O________OP___ hurdat_epa EP011973 12.6000 -102.200 HU 95 946 2 12.6000 -102.200 TC 95 946 12.6297 -102.182 4 90 11 271
1973153N12266 1973 51 EP MM AVA 1973-06-05 21:00:00 TS 12.6176 -102.784 main 556 556 P________PP___ EP011973 12.6149 -102.785 HU 97 3 12.6149 -102.785 TC 97 12.6285 -102.779 4 95 12 270
1973153N12266 1973 51 EP MM AVA 1973-06-06 00:00:00 TS 12.6000 -103.400 100 hurdat_epa main 581 581 O________OO___ hurdat_epa EP011973 12.6000 -103.400 HU 100 3 12.6000 -103.400 TC 100 12.6000 -103.400 4 100 12 265
1973153N12266 1973 51 EP MM AVA 1973-06-06 03:00:00 TS 12.5152 -104.038 main 621 621 P________PP___ EP011973 12.5149 -104.043 HU 100 3 12.5149 -104.043 TC 100 12.5162 -104.021 4 105 13 261
1973153N12266 1973 51 EP MM AVA 1973-06-06 06:00:00 TS 12.4014 -104.693 100 hurdat_epa main 666 666 O________OP___ hurdat_epa EP011973 12.4000 -104.700 HU 100 3 12.4000 -104.700 TC 100 12.4070 -104.663 4 110 13 260
1973153N12266 1973 51 EP MM AVA 1973-06-06 09:00:00 TS 12.2927 -105.339 main 697 697 P________PP___ EP011973 12.2923 -105.343 HU 100 3 12.2923 -105.343 TC 100 12.2942 -105.324 4 115 13 261
1973153N12266 1973 51 EP MM AVA 1973-06-06 12:00:00 TS 12.2000 -106.000 100 hurdat_epa main 733 733 O________OO___ hurdat_epa EP011973 12.2000 -106.000 HU 100 3 12.2000 -106.000 TC 100 12.2000 -106.000 4 120 13 263
1973153N12266 1973 51 EP MM AVA 1973-06-06 15:00:00 TS 12.1352 -106.689 main 774 774 P________PP___ EP011973 12.1349 -106.692 HU 115 4 12.1349 -106.692 TC 115 12.1367 -106.678 4 125 14 266
1973153N12266 1973 51 EP MM AVA 1973-06-06 18:00:00 TS 12.0994 -107.394 130 915 hurdat_epa main 810 810 O________OP___ hurdat_epa EP011973 12.1000 -107.400 HU 130 915 4 12.1000 -107.400 TC 130 915 12.0968 -107.370 4 130 14 268
1973153N12266 1973 51 EP MM AVA 1973-06-06 21:00:00 TS 12.0845 -108.090 main 851 851 P________PP___ EP011973 12.0848 -108.093 HU 135 4 12.0848 -108.093 TC 135 12.0835 -108.078 4 135 14 270
1973153N12266 1973 51 EP MM AVA 1973-06-07 00:00:00 TS 12.1000 -108.800 140 hurdat_epa main 897 897 O________OO___ hurdat_epa EP011973 12.1000 -108.800 HU 140 5 12.1000 -108.800 TC 140 12.1000 -108.800 4 140 14 272
1973153N12266 1973 51 EP MM AVA 1973-06-07 03:00:00 TS 12.1362 -109.540 main 940 940 P________PP___ EP011973 12.1349 -109.543 HU 140 5 12.1349 -109.543 TC 140 12.1417 -109.531 4 140 15 274
1973153N12266 1973 51 EP MM AVA 1973-06-07 06:00:00 TS 12.2024 -110.295 140 hurdat_epa main 979 979 O________OP___ hurdat_epa EP011973 12.2000 -110.300 HU 140 5 12.2000 -110.300 TC 140 12.2118 -110.277 4 140 15 276
1973153N12266 1973 51 EP MM AVA 1973-06-07 09:00:00 TS 12.2940 -111.047 main 1018 1018 P________PP___ EP011973 12.2923 -111.050 HU 140 5 12.2923 -111.050 TC 140 12.3010 -111.035 4 140 15 278
1973153N12266 1973 51 EP MM AVA 1973-06-07 12:00:00 TS 12.4000 -111.800 140 hurdat_epa main 1067 1067 O________OO___ hurdat_epa EP011973 12.4000 -111.800 HU 140 5 12.4000 -111.800 TC 140 12.4000 -111.800 4 140 15 278
1973153N12266 1973 51 EP MM AVA 1973-06-07 15:00:00 TS 12.4966 -112.546 main 1113 1113 P________PP___ EP011973 12.4997 -112.543 HU 140 5 12.4997 -112.543 TC 140 12.4840 -112.560 4 137 15 278
1973153N12266 1973 51 EP MM AVA 1973-06-07 18:00:00 TS 12.5953 -113.306 140 928 hurdat_epa main 1166 1166 O________OP___ hurdat_epa EP011973 12.6000 -113.300 HU 140 928 5 12.6000 -113.300 TC 140 928 12.5765 -113.328 4 135 15 277
1973153N12266 1973 51 EP MM AVA 1973-06-07 21:00:00 TS 12.6900 -114.090 main 1220 1220 P________PP___ EP011973 12.6923 -114.085 HU 135 4 12.6923 -114.085 TC 135 12.6808 -114.107 4 132 16 277
1973153N12266 1973 51 EP MM AVA 1973-06-08 00:00:00 TS 12.8000 -114.900 130 hurdat_epa main 1243 1243 O________OO___ hurdat_epa EP011973 12.8000 -114.900 HU 130 4 12.8000 -114.900 TC 130 12.8000 -114.900 4 130 16 279
1973153N12266 1973 51 EP MM AVA 1973-06-08 03:00:00 TS 12.9401 -115.742 main 1270 1265 P________PP___ EP011973 12.9424 -115.750 HU 130 4 12.9424 -115.750 TC 130 12.9310 -115.711 4 127 17 280
1973153N12266 1973 51 EP MM AVA 1973-06-08 06:00:00 TS 13.0953 -116.587 130 hurdat_epa main 1299 1299 O________OP___ hurdat_epa EP011973 13.1000 -116.600 HU 130 4 13.1000 -116.600 TC 130 13.0767 -116.535 4 125 16 281
1973153N12266 1973 51 EP MM AVA 1973-06-08 09:00:00 TS 13.2466 -117.400 main 1337 1327 P________PP___ EP011973 13.2497 -117.408 HU 130 4 13.2497 -117.408 TC 130 13.2341 -117.367 4 122 16 281
1973153N12266 1973 51 EP MM AVA 1973-06-08 12:00:00 TS 13.4000 -118.200 130 hurdat_epa main 1370 1370 O________OO___ hurdat_epa EP011973 13.4000 -118.200 HU 130 4 13.4000 -118.200 TC 130 13.4000 -118.200 4 120 16 281
1973153N12266 1973 51 EP MM AVA 1973-06-08 15:00:00 TS 13.5447 -118.998 main 1416 1408 P________PP___ EP011973 13.5422 -118.993 HU 115 4 13.5422 -118.993 TC 115 13.5547 -119.022 4 115 16 281
1973153N12266 1973 51 EP MM AVA 1973-06-08 18:00:00 TS 13.7038 -119.809 100 946 hurdat_epa main 1458 1458 O________OP___ hurdat_epa EP011973 13.7000 -119.800 HU 100 946 3 13.7000 -119.800 TC 100 946 13.7188 -119.843 4 110 16 282
1973153N12266 1973 51 EP MM AVA 1973-06-08 21:00:00 TS 13.8874 -120.636 main 1500 1500 P________PP___ EP011973 13.8846 -120.628 HU 100 3 13.8846 -120.628 TC 100 13.8984 -120.669 4 105 17 284
1973153N12266 1973 51 EP MM AVA 1973-06-09 00:00:00 TS 14.1000 -121.500 100 hurdat_epa main 1540 1540 O________OO___ hurdat_epa EP011973 14.1000 -121.500 HU 100 3 14.1000 -121.500 TC 100 14.1000 -121.500 4 100 18 285
1973153N12266 1973 51 EP MM AVA 1973-06-09 03:00:00 TS 14.3464 -122.454 main 1592 1584 P________PP___ EP011973 14.3426 -122.465 HU 95 2 14.3426 -122.465 TC 95 14.3616 -122.411 4 95 19 286
1973153N12266 1973 51 EP MM AVA 1973-06-09 06:00:00 TS 14.6077 -123.384 90 hurdat_epa main 1634 1633 O________OP___ hurdat_epa EP011973 14.6000 -123.400 HU 90 2 14.6000 -123.400 TC 90 14.6387 -123.318 4 90 18 287
1973153N12266 1973 51 EP MM AVA 1973-06-09 09:00:00 TS 14.8771 -124.219 main 1671 1671 P________PP___ EP011973 14.8724 -124.232 HU 85 2 14.8724 -124.232 TC 85 14.8962 -124.167 4 85 15 289
1973153N12266 1973 51 EP MM AVA 1973-06-09 12:00:00 TS 15.1000 -124.900 80 hurdat_epa main 1712 1712 O________OO___ hurdat_epa EP011973 15.1000 -124.900 HU 80 1 15.1000 -124.900 TC 80 15.1000 -124.900 4 80 12 288
1973153N12266 1973 51 EP MM AVA 1973-06-09 15:00:00 TS 15.2356 -125.366 main 1745 1738 P________PP___ EP011973 15.2370 -125.345 HU 72 1 15.2370 -125.345 TC 72 15.2300 -125.448 4 76 8 284
1973153N12266 1973 51 EP MM AVA 1973-06-09 18:00:00 TS 15.3005 -125.736 65 972 hurdat_epa main 1763 1763 O________OP___ hurdat_epa EP011973 15.3000 -125.700 HU 65 972 1 15.3000 -125.700 TC 65 972 15.3027 -125.878 4 72 8 277
1973153N12266 1973 51 EP MM AVA 1973-06-09 21:00:00 TS 15.3288 -126.169 main 1804 1804 P________PP___ EP011973 15.3300 -126.150 HU 65 1 15.3300 -126.150 TC 65 15.3242 -126.244 4 68 8 270
1973153N12266 1973 51 EP MM AVA 1973-06-10 00:00:00 TS 15.3000 -126.600 65 hurdat_epa main 1831 1831 O________OO___ hurdat_epa EP011973 15.3000 -126.600 HU 65 1 15.3000 -126.600 TC 65 15.3000 -126.600 4 65 8 262
1973153N12266 1973 51 EP MM AVA 1973-06-10 03:00:00 TS 15.2164 -127.006 main 1866 1866 P________PP___ EP011973 15.2148 -127.000 HU 62 0 15.2148 -127.000 TC 62 15.2226 -127.030 4 61 8 256
1973153N12266 1973 51 EP MM AVA 1973-06-10 06:00:00 TS 15.1015 -127.412 60 hurdat_epa main 1902 1902 O________OP___ hurdat_epa EP011973 15.1000 -127.400 TS 60 0 15.1000 -127.400 TC 60 15.1073 -127.458 4 57 9 254
1973153N12266 1973 51 EP MM AVA 1973-06-10 09:00:00 TS 14.9857 -127.857 main 1946 1946 P________PP___ EP011973 14.9850 -127.850 TS 55 0 14.9850 -127.850 TC 55 14.9883 -127.883 4 53 9 257
1973153N12266 1973 51 EP MM AVA 1973-06-10 12:00:00 TS 14.9000 -128.300 50 hurdat_epa main 1983 1983 O________OO___ hurdat_epa EP011973 14.9000 -128.300 TS 50 0 14.9000 -128.300 TC 50 14.9000 -128.300 2 50 8 263
1973153N12266 1973 51 EP MM AVA 1973-06-10 15:00:00 TS 14.8798 -128.717 main 2012 2012 P________PP___ EP011973 14.8774 -128.707 TS 47 0 14.8774 -128.707 TC 47 14.8892 -128.756 2 47 8 270
1973153N12266 1973 51 EP MM AVA 1973-06-10 18:00:00 TS 14.9026 -129.119 45 997 hurdat_epa main 2041 2041 O________OP___ hurdat_epa EP011973 14.9000 -129.100 TS 45 997 0 14.9000 -129.100 TC 45 997 14.9128 -129.197 2 45 8 275
1973153N12266 1973 51 EP MM AVA 1973-06-10 21:00:00 TS 14.9511 -129.554 main 2070 2070 P________PP___ EP011973 14.9501 -129.545 TS 42 0 14.9501 -129.545 TC 42 14.9549 -129.590 2 42 8 277
1973153N12266 1973 51 EP MM AVA 1973-06-11 00:00:00 TS 15.0000 -129.900 40 hurdat_epa main 2092 2092 O________OO___ hurdat_epa EP011973 15.0000 -129.900 TS 40 0 15.0000 -129.900 TC 40 15.0000 -129.900 2 40 5 275
1973153N12266 1973 51 EP MM AVA 1973-06-11 03:00:00 TS 14.9975 -130.059 main 2108 2108 P________PP___ EP011973 14.9999 -130.045 TS 37 0 14.9999 -130.045 TC 37 14.9880 -130.115 2 37 2 269
1973153N12266 1973 51 EP MM AVA 1973-06-11 06:00:00 TS 14.9964 -130.128 35 hurdat_epa main 2108 2108 O________OP___ hurdat_epa EP011973 15.0000 -130.100 TS 35 0 15.0000 -130.100 TC 35 14.9820 -130.242 2 35 2 278
1973153N12266 1973 51 EP MM AVA 1973-06-11 09:00:00 TS 15.0180 -130.220 main 2115 2115 P________PP___ EP011973 15.0200 -130.200 TS 32 -1 15.0200 -130.200 TC 32 15.0100 -130.299 2 32 2 302
1973153N12266 1973 51 EP MM AVA 1973-06-11 12:00:00 TS 15.1000 -130.300 30 hurdat_epa main 2115 2107 O________OO___ hurdat_epa EP011973 15.1000 -130.300 TD 30 -1 15.1000 -130.300 TC 30 15.1000 -130.300 6 30 3 331
1973153N12266 1973 51 EP MM AVA 1973-06-11 15:00:00 TS 15.2679 -130.365 main 2107 2092 P________PP___ EP011973 15.2625 -130.400 TD 30 -1 15.2625 -130.400 TC 30 15.2893 -130.223 6 30 4 344
1973153N12266 1973 51 EP MM AVA 1973-06-11 18:00:00 TS 15.5080 -130.421 30 hurdat_epa main 2092 2077 O________OP___ hurdat_epa EP011973 15.5000 -130.500 TD 30 -1 15.5000 -130.500 TC 30 15.5399 -130.106 6 30 5 348
1973153N12266 1973 51 EP MM AVA 1973-06-11 21:00:00 TS 15.7981 -130.482 main 2077 2054 P________PP___ EP011973 15.7925 -130.600 TD 30 -1 15.7925 -130.600 TC 30 15.8205 -130.011 6 30 6 347
1973153N12266 1973 51 EP MM AVA 1973-06-12 00:00:00 TS 16.1000 -130.560 30 hurdat_epa main 2062 2047 O________OO___ hurdat_epa EP011973 16.1000 -130.700 TD 30 -1 16.1000 -130.700 TC 30 16.1000 -130.000 6 30 6 342
1973153N12266 1973 51 EP MM AVA 1973-06-12 03:00:00 TS 16.3628 -130.670 main 2048 2041 P________PP___ EP011973 16.3650 -130.807 TD 30 -1 16.3650 -130.807 TC 30 16.3537 -130.120 6 5 336
1973153N12266 1973 51 EP MM AVA 1973-06-12 06:00:00 TS 16.5966 -130.790 30 hurdat_epa main 2042 2035 O________OP___ hurdat_epa EP011973 16.6000 -130.900 TD 30 -1 16.6000 -130.900 TC 30 16.5831 -130.351 6 5 334
1973153N12266 1973 51 EP MM AVA 1973-06-12 09:00:00 TS 16.8052 -130.899 main 2036 2029 P________PP___ EP011973 16.8075 -130.960 TD 30 -1 16.8075 -130.960 TC 30 16.7959 -130.657 6 5 333
1973153N12266 1973 51 EP MM AVA 1973-06-12 12:00:00 TS 17.0000 -131.000 30 hurdat_epa main 2030 O________OO___ hurdat_epa EP011973 17.0000 -131.000 TD 30 -1 17.0000 -131.000 TC 30 17.0000 -131.000 6 4 334

About IBTrACS Database

This database is a web-friendly format of International Best Track Archive for Climate Stewardship (IBTrACS), a global best track data archive curated by NOAA dating back to 1842.

Updated: 2021-12-01